Time;durP1;ratioP1;P1;durP2;ratioP2;P2;SDS_P1;SDS_P2;PMS_P1;PMS_P2;Temp;Humidity;BMP_temperature;BMP_pressure;BME280_temperature;BME280_humidity;BME280_pressure;Samples;Min_cycle;Max_cycle;Signal;HPM_P1;HPM_P2
2022/04/30 00:01:18;;;;;;;;;;;19.60;99.90;;;;;;5114447;28;20251;-37
2022/04/30 00:03:44;;;;;;;;;;;19.60;99.90;;;;;;5114327;28;20392;-37
2022/04/30 00:06:10;;;;;;;;;;;19.60;99.90;;;;;;5114178;28;19915;-37
2022/04/30 00:08:35;;;;;;;;;;;19.60;99.90;;;;;;5116931;28;19930;-37
2022/04/30 00:11:01;;;;;;;;;;;19.60;99.90;;;;;;5118491;28;19908;-37
2022/04/30 00:13:27;;;;;;;;;;;19.60;99.90;;;;;;5118474;28;19908;-37
2022/04/30 00:15:52;;;;;;;;;;;19.60;99.90;;;;;;5118473;28;19915;-37
2022/04/30 00:18:18;;;;;;;;;;;19.70;99.90;;;;;;5118125;28;20278;-38
2022/04/30 00:20:47;;;;;;;;;;;19.70;99.90;;;;;;5118307;28;20002;-37
2022/04/30 00:23:22;;;;;;;;;;;19.60;99.90;;;;;;5118177;28;19911;-37
2022/04/30 00:25:51;;;;;;;;;;;19.70;99.90;;;;;;5118046;28;20351;-38
2022/04/30 00:28:18;;;;;;;;;;;19.70;99.90;;;;;;5118220;28;19994;-37
2022/04/30 00:30:44;;;;;;;;;;;19.70;99.90;;;;;;5117929;28;19908;-37
2022/04/30 00:33:10;;;;;;;;;;;19.70;99.90;;;;;;5118188;28;20250;-37
2022/04/30 00:35:39;;;;;;;;;;;19.70;99.90;;;;;;5117812;28;20335;-37
2022/04/30 00:38:04;;;;;;;;;;;19.70;99.90;;;;;;5118154;28;19915;-38
2022/04/30 00:40:30;;;;;;;;;;;19.60;99.90;;;;;;5117981;28;19908;-37
2022/04/30 00:42:56;;;;;;;;;;;19.50;99.90;;;;;;5118016;28;19965;-37
2022/04/30 00:45:21;;;;;;;;;;;19.50;99.90;;;;;;5099290;28;20362;-38
2022/04/30 00:47:47;;;;;;;;;;;19.50;99.90;;;;;;5117464;28;19908;-37
2022/04/30 00:50:14;;;;;;;;;;;19.50;99.90;;;;;;5117833;28;19908;-37
2022/04/30 00:52:41;;;;;;;;;;;19.60;99.90;;;;;;5117482;28;19908;-37
2022/04/30 00:55:07;;;;;;;;;;;19.50;99.90;;;;;;5117472;28;19917;-37
2022/04/30 00:57:33;;;;;;;;;;;19.60;99.90;;;;;;5117485;28;20010;-37
2022/04/30 00:59:59;;;;;;;;;;;19.60;99.90;;;;;;5117627;28;19939;-37
2022/04/30 01:02:28;;;;;;;;;;;19.60;99.90;;;;;;5117222;28;19947;-37
2022/04/30 01:04:55;;;;;;;;;;;19.60;99.90;;;;;;5117598;28;20377;-37
2022/04/30 01:07:20;;;;;;;;;;;19.60;99.90;;;;;;5117515;28;19952;-37
2022/04/30 01:09:47;;;;;;;;;;;19.60;99.90;;;;;;5117464;28;19908;-37
2022/04/30 01:12:13;;;;;;;;;;;19.60;99.90;;;;;;5117487;28;20314;-37
2022/04/30 01:14:40;;;;;;;;;;;19.50;99.90;;;;;;5117064;28;19908;-37
2022/04/30 01:17:06;;;;;;;;;;;19.60;99.90;;;;;;5117401;28;19908;-37
2022/04/30 01:19:43;;;;;;;;;;;19.60;99.90;;;;;;5116198;28;19907;-37
2022/04/30 01:22:09;;;;;;;;;;;19.70;99.90;;;;;;5117319;28;19908;-37
2022/04/30 01:24:35;;;;;;;;;;;19.60;99.90;;;;;;5116860;28;19984;-37
2022/04/30 01:27:01;;;;;;;;;;;19.60;99.90;;;;;;5116780;28;20355;-37
2022/04/30 01:29:28;;;;;;;;;;;19.60;99.90;;;;;;5116757;28;20388;-37
2022/04/30 01:37:23;;;;;;;;;;;19.60;99.90;;;;;;5117054;28;20014;-37
2022/04/30 01:39:52;;;;;;;;;;;19.60;99.90;;;;;;5116577;28;19915;-37
2022/04/30 01:42:18;;;;;;;;;;;19.60;99.90;;;;;;5116690;28;19911;-37
2022/04/30 01:44:46;;;;;;;;;;;19.60;99.90;;;;;;5116750;28;19916;-37
2022/04/30 01:47:15;;;;;;;;;;;19.50;99.90;;;;;;5116711;28;19914;-37
2022/04/30 01:49:41;;;;;;;;;;;19.50;99.90;;;;;;5116396;28;19915;-37
2022/04/30 01:52:07;;;;;;;;;;;19.50;99.90;;;;;;5098420;28;19908;-37
2022/04/30 01:54:33;;;;;;;;;;;19.50;99.90;;;;;;5116550;28;19951;-37
2022/04/30 01:56:58;;;;;;;;;;;19.60;99.90;;;;;;5116490;28;19907;-37
2022/04/30 01:59:24;;;;;;;;;;;19.60;99.90;;;;;;5098340;28;20389;-37
2022/04/30 02:01:50;;;;;;;;;;;19.60;99.90;;;;;;5116495;28;19908;-37
2022/04/30 02:04:16;;;;;;;;;;;19.60;99.90;;;;;;5116411;28;20325;-37
2022/04/30 02:06:42;;;;;;;;;;;19.80;99.90;;;;;;5116291;28;19912;-37
2022/04/30 02:09:07;;;;;;;;;;;19.80;99.90;;;;;;5116241;28;19922;-37
2022/04/30 02:11:33;;;;;;;;;;;19.90;99.90;;;;;;5116004;28;19908;-37
2022/04/30 02:13:58;;;;;;;;;;;19.90;99.90;;;;;;5116158;28;19908;-37
2022/04/30 02:16:24;;;;;;;;;;;19.90;99.90;;;;;;5116047;28;19918;-37
2022/04/30 02:18:50;;;;;;;;;;;19.90;99.90;;;;;;5116107;28;19907;-37
2022/04/30 02:21:20;;;;;;;;;;;19.80;99.90;;;;;;5116045;28;19908;-37
2022/04/30 02:23:46;;;;;;;;;;;19.90;99.90;;;;;;5115921;28;19912;-37
2022/04/30 02:26:12;;;;;;;;;;;19.90;99.90;;;;;;5115937;28;19919;-37
2022/04/30 02:28:37;;;;;;;;;;;19.80;99.90;;;;;;5115869;28;19908;-37
2022/04/30 02:31:03;;;;;;;;;;;19.80;99.90;;;;;;5115827;28;19931;-37
2022/04/30 02:33:28;;;;;;;;;;;19.80;99.90;;;;;;5115966;28;20406;-37
2022/04/30 02:35:54;;;;;;;;;;;19.80;99.90;;;;;;5115830;28;20439;-37
2022/04/30 02:38:19;;;;;;;;;;;19.80;99.90;;;;;;5115745;28;19964;-37
2022/04/30 02:40:45;;;;;;;;;;;19.80;99.90;;;;;;5115704;28;20002;-37
2022/04/30 02:43:11;;;;;;;;;;;19.80;99.90;;;;;;5097197;28;19957;-37
2022/04/30 02:45:37;;;;;;;;;;;19.70;99.90;;;;;;5115686;28;19912;-37
2022/04/30 02:48:03;;;;;;;;;;;19.70;99.90;;;;;;5097269;28;19907;-37
2022/04/30 02:50:29;;;;;;;;;;;19.60;99.90;;;;;;5115139;28;19908;-37
2022/04/30 02:52:55;;;;;;;;;;;19.60;99.90;;;;;;5115478;28;19965;-37
2022/04/30 02:55:24;;;;;;;;;;;19.50;99.90;;;;;;5115414;28;20365;-37
2022/04/30 03:00:40;;;;;;;;;;;19.50;99.90;;;;;;5115135;28;19919;-37
2022/04/30 03:03:07;;;;;;;;;;;19.50;99.90;;;;;;5115499;28;19912;-37
2022/04/30 03:05:34;;;;;;;;;;;19.60;99.90;;;;;;5115178;28;19912;-37
2022/04/30 03:08:04;;;;;;;;;;;19.50;99.90;;;;;;5114903;28;20273;-37
2022/04/30 03:10:30;;;;;;;;;;;19.50;99.90;;;;;;5114849;28;20003;-37
2022/04/30 03:12:55;;;;;;;;;;;19.50;99.90;;;;;;5114827;28;19943;-37
2022/04/30 03:15:22;;;;;;;;;;;19.40;99.90;;;;;;5114975;28;19914;-37
2022/04/30 03:23:16;;;;;;;;;;;19.40;99.90;;;;;;5114912;28;19918;-37
2022/04/30 03:25:42;;;;;;;;;;;19.40;99.90;;;;;;5114574;28;19912;-37
2022/04/30 03:28:07;;;;;;;;;;;19.40;99.90;;;;;;5114544;28;19908;-37
2022/04/30 03:30:33;;;;;;;;;;;19.40;99.90;;;;;;5114793;28;19908;-37
2022/04/30 03:32:58;;;;;;;;;;;19.40;99.90;;;;;;5114388;28;19919;-37
2022/04/30 03:35:24;;;;;;;;;;;19.40;99.90;;;;;;5114468;28;19935;-37
2022/04/30 03:37:49;;;;;;;;;;;19.30;99.90;;;;;;5114799;28;20365;-37
2022/04/30 03:40:15;;;;;;;;;;;19.30;99.90;;;;;;5114748;28;19908;-37
2022/04/30 03:42:40;;;;;;;;;;;19.30;99.90;;;;;;5113958;28;19919;-37
2022/04/30 03:45:07;;;;;;;;;;;19.30;99.90;;;;;;5114467;28;19912;-37
2022/04/30 03:47:32;;;;;;;;;;;19.30;99.90;;;;;;5114549;28;19907;-37
2022/04/30 03:49:59;;;;;;;;;;;19.30;99.90;;;;;;5114881;28;20002;-37
2022/04/30 03:52:24;;;;;;;;;;;19.30;99.90;;;;;;5114295;28;19947;-37
2022/04/30 03:54:50;;;;;;;;;;;19.30;99.90;;;;;;5114552;28;20320;-37
2022/04/30 03:57:15;;;;;;;;;;;19.30;99.90;;;;;;5114292;28;20002;-37
2022/04/30 03:59:41;;;;;;;;;;;19.30;99.90;;;;;;5114244;28;19951;-38
2022/04/30 04:02:06;;;;;;;;;;;19.30;99.90;;;;;;5114095;28;19907;-37
2022/04/30 04:04:32;;;;;;;;;;;19.30;99.90;;;;;;5114415;28;19911;-37
2022/04/30 04:06:58;;;;;;;;;;;19.30;99.90;;;;;;5114427;28;19908;-37
2022/04/30 04:09:23;;;;;;;;;;;19.30;99.90;;;;;;5114422;28;19908;-37
2022/04/30 04:11:49;;;;;;;;;;;19.30;99.90;;;;;;5114696;28;20260;-37
2022/04/30 04:19:43;;;;;;;;;;;19.20;99.90;;;;;;5114507;28;19915;-37
2022/04/30 04:22:08;;;;;;;;;;;19.20;99.90;;;;;;5114218;28;19908;-37
2022/04/30 04:27:18;;;;;;;;;;;19.10;99.90;;;;;;5114384;28;19919;-37
2022/04/30 04:29:44;;;;;;;;;;;19.10;99.90;;;;;;5113940;28;19908;-37
2022/04/30 04:32:10;;;;;;;;;;;19.20;99.90;;;;;;5114007;28;19929;-37
2022/04/30 04:34:35;;;;;;;;;;;19.20;99.90;;;;;;5114114;28;19915;-37
2022/04/30 04:37:01;;;;;;;;;;;19.20;99.90;;;;;;5114254;28;20346;-37
2022/04/30 04:39:26;;;;;;;;;;;19.10;99.90;;;;;;5114166;28;20313;-36
2022/04/30 04:41:52;;;;;;;;;;;19.10;99.90;;;;;;5114122;28;19915;-36
2022/04/30 04:44:18;;;;;;;;;;;19.10;99.90;;;;;;5113949;28;20096;-37
2022/04/30 04:46:43;;;;;;;;;;;19.10;99.90;;;;;;5113651;28;19911;-37
2022/04/30 04:49:09;;;;;;;;;;;19.10;99.90;;;;;;5095661;28;19998;-37
2022/04/30 04:51:35;;;;;;;;;;;19.10;99.90;;;;;;5113678;28;20006;-36
2022/04/30 04:54:01;;;;;;;;;;;19.10;99.90;;;;;;5114047;28;19950;-36
2022/04/30 04:56:27;;;;;;;;;;;19.10;99.90;;;;;;5117935;28;19907;-36
2022/04/30 04:58:52;;;;;;;;;;;19.00;99.90;;;;;;5117755;28;20286;-36
2022/04/30 05:01:18;;;;;;;;;;;19.00;99.90;;;;;;5117652;28;19912;-36
2022/04/30 05:03:43;;;;;;;;;;;19.00;99.90;;;;;;5117216;28;19961;-37
2022/04/30 05:06:09;;;;;;;;;;;19.00;99.90;;;;;;5117479;28;19912;-36
2022/04/30 05:08:34;;;;;;;;;;;18.90;99.90;;;;;;5117205;28;20247;-36
2022/04/30 05:11:00;;;;;;;;;;;18.90;99.90;;;;;;5117389;28;19966;-36
2022/04/30 05:13:26;;;;;;;;;;;19.00;99.90;;;;;;5117383;28;20239;-36
2022/04/30 05:15:51;;;;;;;;;;;18.90;99.90;;;;;;5117151;28;19911;-37
2022/04/30 05:18:17;;;;;;;;;;;18.90;99.90;;;;;;5116974;28;19908;-37
2022/04/30 05:20:42;;;;;;;;;;;18.90;99.90;;;;;;5117250;28;20341;-37
2022/04/30 05:23:08;;;;;;;;;;;18.90;99.90;;;;;;5116806;28;20273;-36
2022/04/30 05:25:33;;;;;;;;;;;18.80;99.90;;;;;;5116767;28;19939;-36
2022/04/30 05:27:59;;;;;;;;;;;18.90;99.90;;;;;;5116961;28;19908;-36
2022/04/30 05:30:25;;;;;;;;;;;18.90;99.90;;;;;;5116798;28;19919;-37
2022/04/30 05:32:51;;;;;;;;;;;18.90;99.90;;;;;;5116642;28;20386;-37
2022/04/30 05:35:16;;;;;;;;;;;18.90;99.90;;;;;;5116444;28;19907;-37
2022/04/30 05:37:42;;;;;;;;;;;18.90;99.90;;;;;;5116766;28;19907;-36
2022/04/30 05:40:08;;;;;;;;;;;18.90;99.90;;;;;;5098442;28;19908;-37
2022/04/30 05:42:33;;;;;;;;;;;18.90;99.90;;;;;;5116492;28;20027;-36
2022/04/30 05:44:59;;;;;;;;;;;18.80;99.90;;;;;;5116333;28;19918;-37
2022/04/30 05:47:24;;;;;;;;;;;18.80;99.90;;;;;;5116310;28;19912;-37
2022/04/30 05:49:50;;;;;;;;;;;18.80;99.90;;;;;;5116412;28;19914;-37
2022/04/30 05:52:15;;;;;;;;;;;18.80;99.90;;;;;;5116541;28;19908;-37
2022/04/30 05:54:41;;;;;;;;;;;18.80;99.90;;;;;;5116478;28;19908;-37
2022/04/30 05:57:07;;;;;;;;;;;18.80;99.90;;;;;;5116089;28;20361;-37
2022/04/30 05:59:32;;;;;;;;;;;18.80;99.90;;;;;;5116180;28;19908;-37
2022/04/30 06:01:58;;;;;;;;;;;18.80;99.90;;;;;;5116011;28;19972;-37
2022/04/30 06:04:23;;;;;;;;;;;18.80;99.90;;;;;;5116203;28;19911;-37
2022/04/30 06:06:49;;;;;;;;;;;18.80;99.90;;;;;;5097633;28;20345;-37
2022/04/30 06:09:14;;;;;;;;;;;18.80;99.90;;;;;;5116119;28;19923;-37
2022/04/30 06:11:40;;;;;;;;;;;18.80;99.90;;;;;;5115861;28;19915;-37
2022/04/30 06:14:06;;;;;;;;;;;18.80;99.90;;;;;;5116538;28;19908;-37
2022/04/30 06:16:31;;;;;;;;;;;18.80;99.90;;;;;;5115952;28;19960;-37
2022/04/30 06:18:57;;;;;;;;;;;18.80;99.90;;;;;;5097465;28;20346;-37
2022/04/30 06:21:23;;;;;;;;;;;18.80;99.90;;;;;;5115993;28;19914;-37
2022/04/30 06:23:49;;;;;;;;;;;18.80;99.90;;;;;;5115763;28;19947;-37
2022/04/30 06:26:15;;;;;;;;;;;18.80;99.90;;;;;;5115941;28;19916;-37
2022/04/30 06:28:41;;;;;;;;;;;18.80;99.90;;;;;;5116169;28;19907;-37
2022/04/30 06:31:06;;;;;;;;;;;18.80;99.90;;;;;;5115504;28;19969;-37
2022/04/30 06:33:32;;;;;;;;;;;18.80;99.90;;;;;;5115979;28;19920;-38
2022/04/30 06:35:58;;;;;;;;;;;18.80;99.90;;;;;;5115195;28;19994;-37
2022/04/30 06:38:23;;;;;;;;;;;18.80;99.90;;;;;;5115754;28;19915;-37
2022/04/30 06:40:49;;;;;;;;;;;18.80;99.90;;;;;;5114858;28;19908;-37
2022/04/30 06:43:15;;;;;;;;;;;18.80;99.90;;;;;;5115010;28;20266;-37
2022/04/30 06:45:40;;;;;;;;;;;18.80;99.90;;;;;;5115512;28;19935;-37
2022/04/30 06:48:06;;;;;;;;;;;18.80;99.90;;;;;;5115361;28;19915;-37
2022/04/30 06:50:32;;;;;;;;;;;18.80;99.90;;;;;;5115129;28;19915;-37
2022/04/30 06:58:25;;;;;;;;;;;18.80;99.90;;;;;;5114743;28;19961;-37
2022/04/30 07:03:24;;;;;;;;;;;18.80;99.90;;;;;;5114965;28;19954;-37
2022/04/30 07:05:50;;;;;;;;;;;18.80;99.90;;;;;;5114926;28;19912;-37
2022/04/30 07:08:16;;;;;;;;;;;18.80;99.90;;;;;;5114588;28;19914;-37
2022/04/30 07:10:41;;;;;;;;;;;18.80;99.90;;;;;;5114714;28;20274;-37
2022/04/30 07:13:07;;;;;;;;;;;18.80;99.90;;;;;;5114332;28;19915;-37
2022/04/30 07:15:32;;;;;;;;;;;18.80;99.90;;;;;;5114607;28;19912;-37
2022/04/30 07:17:58;;;;;;;;;;;18.80;99.90;;;;;;5114017;28;19912;-37
2022/04/30 07:20:23;;;;;;;;;;;18.80;99.90;;;;;;5114612;28;19994;-37
2022/04/30 07:22:49;;;;;;;;;;;18.80;99.90;;;;;;5096394;28;19912;-37
2022/04/30 07:25:14;;;;;;;;;;;18.80;99.90;;;;;;5114656;28;19926;-37
2022/04/30 07:27:40;;;;;;;;;;;18.80;99.90;;;;;;5114645;28;19908;-37
2022/04/30 07:30:06;;;;;;;;;;;18.80;99.90;;;;;;5114470;28;19915;-37
2022/04/30 07:32:31;;;;;;;;;;;18.80;99.90;;;;;;5114611;28;19919;-37
2022/04/30 07:34:57;;;;;;;;;;;18.80;99.90;;;;;;5114657;28;19939;-37
2022/04/30 07:37:22;;;;;;;;;;;18.80;99.90;;;;;;5114559;28;19908;-37
2022/04/30 07:39:48;;;;;;;;;;;18.80;99.90;;;;;;5114122;28;19915;-37
2022/04/30 07:42:13;;;;;;;;;;;18.80;99.90;;;;;;5114353;28;19908;-37
2022/04/30 07:44:39;;;;;;;;;;;18.80;99.90;;;;;;5114693;28;19912;-37
2022/04/30 07:47:04;;;;;;;;;;;18.80;99.90;;;;;;5114532;28;19911;-37
2022/04/30 07:49:31;;;;;;;;;;;18.80;99.90;;;;;;5114752;28;19952;-37
2022/04/30 07:51:56;;;;;;;;;;;18.80;99.90;;;;;;5114260;28;20007;-37
2022/04/30 07:54:22;;;;;;;;;;;18.80;99.90;;;;;;5114413;28;19915;-37
2022/04/30 07:56:52;;;;;;;;;;;18.80;99.90;;;;;;5113978;28;19939;-37
2022/04/30 07:59:17;;;;;;;;;;;18.80;99.90;;;;;;5114436;28;19908;-37
2022/04/30 08:01:43;;;;;;;;;;;18.80;99.90;;;;;;5113887;28;19908;-37
2022/04/30 08:04:08;;;;;;;;;;;18.80;99.90;;;;;;5114021;28;19974;-37
2022/04/30 08:06:34;;;;;;;;;;;18.80;99.90;;;;;;5114199;28;19916;-37
2022/04/30 08:08:59;;;;;;;;;;;18.80;99.90;;;;;;5113708;28;19915;-37
2022/04/30 08:11:25;;;;;;;;;;;18.80;99.90;;;;;;5113788;28;19911;-37
2022/04/30 08:13:50;;;;;;;;;;;18.80;99.90;;;;;;5114482;28;19918;-37
2022/04/30 08:16:16;;;;;;;;;;;18.80;99.90;;;;;;5114235;28;19976;-37
2022/04/30 08:18:42;;;;;;;;;;;18.80;99.90;;;;;;5113733;28;19956;-37
2022/04/30 08:21:08;;;;;;;;;;;18.80;99.90;;;;;;5113448;28;19908;-37
2022/04/30 08:23:34;;;;;;;;;;;18.80;99.90;;;;;;5113569;28;20354;-37
2022/04/30 08:26:00;;;;;;;;;;;18.80;99.90;;;;;;5113783;28;20285;-37
2022/04/30 08:28:25;;;;;;;;;;;18.80;99.90;;;;;;5114346;28;19912;-37
2022/04/30 08:30:50;;;;;;;;;;;18.80;99.90;;;;;;5117923;28;19943;-37
2022/04/30 08:33:16;;;;;;;;;;;18.80;99.90;;;;;;5099097;28;19920;-37
2022/04/30 08:35:42;;;;;;;;;;;18.80;99.90;;;;;;5117691;28;19943;-36
2022/04/30 08:38:08;;;;;;;;;;;18.80;99.90;;;;;;5117435;28;19958;-36
2022/04/30 08:40:33;;;;;;;;;;;18.80;99.90;;;;;;5117064;28;20343;-36
2022/04/30 08:43:06;;;;;;;;;;;18.70;99.90;;;;;;5116967;28;20006;-36
2022/04/30 08:45:35;;;;;;;;;;;18.70;99.90;;;;;;5117579;28;19964;-36
2022/04/30 08:48:01;;;;;;;;;;;18.80;99.90;;;;;;5117168;28;19914;-36
2022/04/30 08:50:29;;;;;;;;;;;18.80;99.90;;;;;;5117364;28;20361;-37
2022/04/30 08:52:55;;;;;;;;;;;18.70;99.90;;;;;;5117421;28;19955;-37
2022/04/30 08:55:20;;;;;;;;;;;18.70;99.90;;;;;;5117053;28;20007;-37
2022/04/30 08:57:46;;;;;;;;;;;18.70;99.90;;;;;;5117455;28;19943;-37
2022/04/30 09:00:12;;;;;;;;;;;18.70;99.90;;;;;;5117113;28;20002;-37
2022/04/30 09:02:47;;;;;;;;;;;18.60;99.90;;;;;;5117133;28;20355;-37
2022/04/30 09:05:13;;;;;;;;;;;18.70;99.90;;;;;;5116830;28;20377;-37
2022/04/30 09:07:39;;;;;;;;;;;18.70;99.90;;;;;;5116925;28;19908;-37
2022/04/30 09:10:05;;;;;;;;;;;18.70;99.90;;;;;;5116576;28;20287;-36
2022/04/30 09:12:33;;;;;;;;;;;18.60;99.90;;;;;;5117025;28;19908;-37
2022/04/30 09:14:59;;;;;;;;;;;18.60;99.90;;;;;;5116979;28;19908;-37
2022/04/30 09:17:26;;;;;;;;;;;18.70;99.90;;;;;;5116602;28;20324;-37
2022/04/30 09:19:56;;;;;;;;;;;18.70;99.90;;;;;;5116703;28;19953;-37
2022/04/30 09:22:35;;;;;;;;;;;18.70;99.90;;;;;;5116640;28;19973;-37
2022/04/30 09:25:02;;;;;;;;;;;18.70;99.90;;;;;;5116880;28;19926;-37
2022/04/30 09:27:27;;;;;;;;;;;18.70;99.90;;;;;;5116479;28;19966;-37
2022/04/30 09:29:53;;;;;;;;;;;18.70;99.90;;;;;;5116785;28;19908;-37
2022/04/30 09:32:21;;;;;;;;;;;18.60;99.90;;;;;;5116355;28;19965;-37
2022/04/30 09:37:45;;;;;;;;;;;18.70;99.90;;;;;;5116447;28;19921;-37
2022/04/30 09:40:10;;;;;;;;;;;18.70;99.90;;;;;;5115500;28;20367;-37
2022/04/30 09:42:38;;;;;;;;;;;18.70;99.90;;;;;;5116438;28;19918;-37
2022/04/30 09:45:04;;;;;;;;;;;18.70;99.90;;;;;;5116111;28;19912;-37
2022/04/30 09:47:30;;;;;;;;;;;18.70;99.90;;;;;;5116310;28;19937;-37
2022/04/30 09:55:24;;;;;;;;;;;18.70;99.90;;;;;;5115890;28;19953;-37
2022/04/30 09:57:50;;;;;;;;;;;18.80;99.90;;;;;;5116113;28;20421;-37
2022/04/30 10:00:16;;;;;;;;;;;18.70;99.90;;;;;;5115888;28;19957;-37
2022/04/30 10:02:45;;;;;;;;;;;18.70;99.90;;;;;;5116186;28;19959;-37
2022/04/30 10:05:11;;;;;;;;;;;18.70;99.90;;;;;;5116003;28;19950;-37
2022/04/30 10:07:37;;;;;;;;;;;18.70;99.90;;;;;;5097561;28;19908;-37
2022/04/30 10:10:12;;;;;;;;;;;18.70;99.90;;;;;;5097527;28;19915;-37
2022/04/30 10:12:46;;;;;;;;;;;18.70;99.90;;;;;;5115942;28;19908;-37
2022/04/30 10:15:21;;;;;;;;;;;18.70;99.90;;;;;;5115619;28;20273;-37
2022/04/30 10:17:51;;;;;;;;;;;18.60;99.90;;;;;;5115738;28;19929;-37
2022/04/30 10:20:22;;;;;;;;;;;18.60;99.90;;;;;;5115883;28;20375;-37
2022/04/30 10:22:52;;;;;;;;;;;18.70;99.90;;;;;;5115601;28;20025;-37
2022/04/30 10:25:18;;;;;;;;;;;18.70;99.90;;;;;;5115282;28;20285;-37
2022/04/30 10:27:46;;;;;;;;;;;18.70;99.90;;;;;;5115418;28;20335;-37
2022/04/30 10:30:19;;;;;;;;;;;18.60;99.90;;;;;;5115259;28;19908;-37
2022/04/30 10:32:53;;;;;;;;;;;18.60;99.90;;;;;;5115712;28;19920;-37
2022/04/30 10:35:26;;;;;;;;;;;18.70;99.90;;;;;;5115684;28;20008;-37
2022/04/30 10:37:52;;;;;;;;;;;18.60;99.90;;;;;;5115361;28;20380;-37
2022/04/30 10:40:17;;;;;;;;;;;18.70;99.90;;;;;;5097485;28;19911;-37
2022/04/30 10:42:44;;;;;;;;;;;18.60;99.90;;;;;;5115332;28;19953;-37
2022/04/30 10:45:15;;;;;;;;;;;18.60;99.90;;;;;;5114723;28;19960;-37
2022/04/30 10:47:53;;;;;;;;;;;18.60;99.90;;;;;;5114827;28;19907;-37
2022/04/30 10:50:19;;;;;;;;;;;18.60;99.90;;;;;;5114990;28;20002;-36
2022/04/30 10:52:48;;;;;;;;;;;18.60;99.90;;;;;;5114202;28;19914;-37
2022/04/30 10:55:14;;;;;;;;;;;18.60;99.90;;;;;;5114949;28;19939;-37
2022/04/30 10:57:43;;;;;;;;;;;18.60;99.90;;;;;;5114818;28;19947;-37
2022/04/30 11:00:09;;;;;;;;;;;18.60;99.90;;;;;;5114985;28;20253;-37
2022/04/30 11:02:35;;;;;;;;;;;18.60;99.90;;;;;;5114876;28;19918;-37
2022/04/30 11:05:01;;;;;;;;;;;18.60;99.90;;;;;;5114932;28;20269;-37
2022/04/30 11:07:28;;;;;;;;;;;18.60;99.90;;;;;;5114506;28;20350;-37
2022/04/30 11:09:54;;;;;;;;;;;18.60;99.90;;;;;;5114738;28;20416;-37
2022/04/30 11:12:20;;;;;;;;;;;18.60;99.90;;;;;;5114934;28;19950;-37
2022/04/30 11:14:45;;;;;;;;;;;18.60;99.90;;;;;;5114543;28;20285;-37
2022/04/30 11:17:11;;;;;;;;;;;18.60;99.90;;;;;;5114232;28;19953;-37
2022/04/30 11:19:43;;;;;;;;;;;18.70;99.90;;;;;;5114263;28;19908;-37
2022/04/30 11:22:09;;;;;;;;;;;18.60;99.90;;;;;;5114414;28;20343;-37
2022/04/30 11:24:37;;;;;;;;;;;18.60;99.90;;;;;;5114121;28;19915;-37
2022/04/30 11:27:04;;;;;;;;;;;18.70;99.90;;;;;;5114392;28;19918;-37
2022/04/30 11:29:30;;;;;;;;;;;18.60;99.90;;;;;;5114110;28;19960;-37
2022/04/30 11:31:56;;;;;;;;;;;18.60;99.90;;;;;;5114184;28;19920;-37
2022/04/30 11:34:22;;;;;;;;;;;18.60;99.90;;;;;;5114409;28;19957;-37
2022/04/30 11:36:52;;;;;;;;;;;18.60;99.90;;;;;;5114453;28;20273;-37
2022/04/30 11:39:18;;;;;;;;;;;18.60;99.90;;;;;;5114258;28;19919;-37
2022/04/30 11:41:45;;;;;;;;;;;18.60;99.90;;;;;;5114161;28;20014;-37
2022/04/30 11:44:11;;;;;;;;;;;18.60;99.90;;;;;;5114008;28;19912;-37
2022/04/30 11:46:40;;;;;;;;;;;18.60;99.90;;;;;;5113626;28;19955;-37
2022/04/30 11:49:10;;;;;;;;;;;18.60;99.90;;;;;;5113888;28;19908;-37
2022/04/30 11:51:36;;;;;;;;;;;18.60;99.90;;;;;;5114208;28;20358;-37
2022/04/30 11:54:02;;;;;;;;;;;18.60;99.90;;;;;;5114277;28;19908;-37
2022/04/30 11:56:28;;;;;;;;;;;18.60;99.90;;;;;;5114210;28;19931;-37
2022/04/30 11:58:55;;;;;;;;;;;18.70;99.90;;;;;;5114070;28;20338;-37
2022/04/30 12:01:21;;;;;;;;;;;18.70;99.90;;;;;;5113552;28;19907;-37
2022/04/30 12:03:52;;;;;;;;;;;18.70;99.90;;;;;;5097234;28;19912;-37
2022/04/30 12:06:18;;;;;;;;;;;18.80;99.90;;;;;;5099739;28;19919;-37
2022/04/30 12:08:44;;;;;;;;;;;18.80;99.90;;;;;;5117844;28;19918;-37
2022/04/30 12:11:09;;;;;;;;;;;19.10;99.90;;;;;;5117998;28;20002;-37
2022/04/30 12:13:35;;;;;;;;;;;19.30;99.90;;;;;;5117910;28;19931;-37
2022/04/30 12:16:05;;;;;;;;;;;19.50;99.90;;;;;;5117890;28;20342;-37
2022/04/30 12:27:03;;;;;;;;;;;20.00;99.90;;;;;;5117681;28;19918;-37
2022/04/30 12:29:30;;;;;;;;;;;20.00;99.90;;;;;;5117564;28;19914;-37
2022/04/30 12:31:56;;;;;;;;;;;20.00;99.90;;;;;;5117654;28;19920;-37
2022/04/30 12:34:22;;;;;;;;;;;19.90;99.90;;;;;;5117660;28;19907;-37
2022/04/30 12:36:52;;;;;;;;;;;19.90;99.90;;;;;;5117411;28;19908;-37
2022/04/30 12:39:18;;;;;;;;;;;19.90;99.90;;;;;;5117342;28;19908;-37
2022/04/30 12:41:44;;;;;;;;;;;19.80;99.90;;;;;;5117102;28;19962;-37
2022/04/30 12:44:09;;;;;;;;;;;19.80;99.90;;;;;;5117394;28;19950;-37
2022/04/30 12:46:35;;;;;;;;;;;19.80;99.90;;;;;;5117152;28;19992;-37
2022/04/30 12:49:00;;;;;;;;;;;19.80;99.90;;;;;;5116972;28;19920;-42
2022/04/30 12:51:26;;;;;;;;;;;19.80;99.90;;;;;;5117155;28;19908;-37
2022/04/30 12:53:51;;;;;;;;;;;19.80;99.90;;;;;;5117332;28;19961;-37
2022/04/30 12:56:18;;;;;;;;;;;19.80;99.90;;;;;;5117266;28;19938;-37
2022/04/30 12:58:43;;;;;;;;;;;19.80;99.90;;;;;;5117402;28;20402;-37
2022/04/30 13:01:09;;;;;;;;;;;19.80;99.90;;;;;;5117404;28;19908;-37
2022/04/30 13:03:34;;;;;;;;;;;19.70;99.90;;;;;;5116983;28;20000;-37
2022/04/30 13:06:01;;;;;;;;;;;19.70;99.90;;;;;;5116816;28;19954;-37
2022/04/30 13:13:30;;;;;;;;;;;19.70;99.90;;;;;;5116592;28;19907;-37
2022/04/30 13:13:56;;;;;;;;;;;19.60;99.90;;;;;;5116620;28;20019;-37
2022/04/30 13:16:21;;;;;;;;;;;19.60;99.90;;;;;;5115757;28;20334;-37
2022/04/30 13:18:47;;;;;;;;;;;19.60;99.90;;;;;;5116398;28;20119;-37
2022/04/30 13:21:13;;;;;;;;;;;19.70;99.90;;;;;;5116671;28;19949;-37
2022/04/30 13:23:39;;;;;;;;;;;19.80;99.90;;;;;;5116447;28;19912;-37
2022/04/30 13:26:05;;;;;;;;;;;19.90;99.90;;;;;;5116573;28;19916;-37
2022/04/30 13:28:31;;;;;;;;;;;19.90;99.90;;;;;;5116826;28;19908;-37
2022/04/30 13:30:56;;;;;;;;;;;19.90;99.90;;;;;;5116721;28;19914;-37
2022/04/30 13:33:22;;;;;;;;;;;19.80;99.90;;;;;;5116862;28;19920;-37
2022/04/30 13:35:48;;;;;;;;;;;19.80;99.90;;;;;;5116228;28;19915;-37
2022/04/30 13:38:14;;;;;;;;;;;19.80;99.90;;;;;;5116870;28;19914;-37
2022/04/30 13:40:40;;;;;;;;;;;19.80;99.90;;;;;;5116594;28;20338;-37
2022/04/30 13:43:07;;;;;;;;;;;19.80;99.90;;;;;;5116356;28;19964;-38
2022/04/30 13:45:32;;;;;;;;;;;19.70;99.90;;;;;;5116093;28;19918;-37
2022/04/30 13:47:58;;;;;;;;;;;19.70;99.90;;;;;;5116438;28;19998;-37
2022/04/30 13:50:23;;;;;;;;;;;19.80;99.90;;;;;;5116321;28;19908;-38
2022/04/30 13:52:50;;;;;;;;;;;19.70;99.90;;;;;;5116139;28;19965;-37
2022/04/30 13:55:15;;;;;;;;;;;19.60;99.90;;;;;;5115857;28;19911;-37
2022/04/30 13:57:41;;;;;;;;;;;19.70;99.90;;;;;;5116261;28;20282;-37
2022/04/30 14:00:07;;;;;;;;;;;19.70;99.90;;;;;;5116244;28;19915;-37
2022/04/30 14:02:33;;;;;;;;;;;19.60;99.90;;;;;;5116091;28;19992;-37
2022/04/30 14:04:59;;;;;;;;;;;19.60;99.90;;;;;;5097784;28;20336;-37
2022/04/30 14:07:25;;;;;;;;;;;19.70;99.90;;;;;;5115886;28;20008;-37
2022/04/30 14:09:51;;;;;;;;;;;19.70;99.90;;;;;;5115964;28;19908;-37
2022/04/30 14:12:17;;;;;;;;;;;19.70;99.90;;;;;;5115731;28;20372;-37
2022/04/30 14:14:55;;;;;;;;;;;19.60;99.90;;;;;;5115668;28;20251;-40
2022/04/30 14:20:06;;;;;;;;;;;19.50;99.90;;;;;;5115424;28;20014;-37
2022/04/30 14:22:34;;;;;;;;;;;19.50;99.90;;;;;;5115624;28;20350;-37
2022/04/30 14:25:00;;;;;;;;;;;19.60;99.90;;;;;;5115667;28;19912;-37
2022/04/30 14:27:26;;;;;;;;;;;19.80;99.90;;;;;;5114807;28;19915;-37
2022/04/30 14:29:52;;;;;;;;;;;19.90;99.90;;;;;;5115383;28;19907;-37
2022/04/30 14:32:19;;;;;;;;;;;19.80;99.90;;;;;;5115511;28;20010;-37
2022/04/30 14:34:44;;;;;;;;;;;19.80;99.90;;;;;;5115212;28;19908;-37
2022/04/30 14:37:10;;;;;;;;;;;19.80;99.90;;;;;;5115273;28;19994;-37
2022/04/30 14:39:36;;;;;;;;;;;19.80;99.90;;;;;;5114860;28;19926;-37
2022/04/30 14:42:02;;;;;;;;;;;19.80;99.90;;;;;;5115136;28;19907;-37
2022/04/30 14:44:28;;;;;;;;;;;19.80;99.90;;;;;;5114802;28;20346;-37
2022/04/30 14:46:54;;;;;;;;;;;19.80;99.90;;;;;;5115099;28;19911;-37
2022/04/30 14:49:20;;;;;;;;;;;19.80;99.90;;;;;;5114486;28;19915;-37
2022/04/30 14:51:46;;;;;;;;;;;19.80;99.90;;;;;;5114248;28;19911;-37
2022/04/30 14:54:11;;;;;;;;;;;19.80;99.90;;;;;;5114867;28;19908;-37
2022/04/30 14:56:37;;;;;;;;;;;19.80;99.90;;;;;;5115071;28;20269;-37
2022/04/30 14:59:03;;;;;;;;;;;19.70;99.90;;;;;;5114976;28;19953;-37
2022/04/30 15:01:28;;;;;;;;;;;19.70;99.90;;;;;;5114980;28;19907;-37
2022/04/30 15:03:54;;;;;;;;;;;19.70;99.90;;;;;;5115072;28;19918;-37